sensor_id;sensor_type;location;lat;lon;timestamp;pressure;altitude;pressure_sealevel;temperature;humidity
24160;BME280;62385;41.594;23.808;2023-06-10T00:00:06;95079.41;;;16.50;89.34
24160;BME280;62385;41.594;23.808;2023-06-10T00:02:38;95076.41;;;16.33;89.92
24160;BME280;62385;41.594;23.808;2023-06-10T00:05:04;95064.81;;;16.14;90.28
24160;BME280;62385;41.594;23.808;2023-06-10T00:07:30;95062.56;;;16.36;89.92
24160;BME280;62385;41.594;23.808;2023-06-10T00:09:55;95059.97;;;16.30;89.28
24160;BME280;62385;41.594;23.808;2023-06-10T00:12:22;95055.31;;;16.12;89.37
24160;BME280;62385;41.594;23.808;2023-06-10T00:14:48;95061.13;;;16.09;89.07
24160;BME280;62385;41.594;23.808;2023-06-10T00:17:15;95075.06;;;16.17;89.88
24160;BME280;62385;41.594;23.808;2023-06-10T00:19:42;95062.63;;;16.30;89.13
24160;BME280;62385;41.594;23.808;2023-06-10T00:22:09;95067.34;;;16.34;88.86
24160;BME280;62385;41.594;23.808;2023-06-10T00:24:37;95064.44;;;16.36;87.26
24160;BME280;62385;41.594;23.808;2023-06-10T00:27:03;95058.53;;;16.27;88.60
24160;BME280;62385;41.594;23.808;2023-06-10T00:29:28;95049.81;;;16.32;89.14
24160;BME280;62385;41.594;23.808;2023-06-10T00:31:54;95053.06;;;16.40;88.71
24160;BME280;62385;41.594;23.808;2023-06-10T00:34:23;95039.22;;;16.19;89.29
24160;BME280;62385;41.594;23.808;2023-06-10T00:36:48;95053.34;;;16.32;89.16
24160;BME280;62385;41.594;23.808;2023-06-10T00:39:16;95041.97;;;16.37;88.94
24160;BME280;62385;41.594;23.808;2023-06-10T00:41:42;95046.03;;;16.46;88.62
24160;BME280;62385;41.594;23.808;2023-06-10T00:44:10;95044.72;;;16.55;87.99
24160;BME280;62385;41.594;23.808;2023-06-10T00:46:36;95046.72;;;16.66;87.80
24160;BME280;62385;41.594;23.808;2023-06-10T00:49:03;95041.59;;;16.65;87.39
24160;BME280;62385;41.594;23.808;2023-06-10T00:51:29;95058.88;;;16.69;86.53
24160;BME280;62385;41.594;23.808;2023-06-10T00:53:55;95055.06;;;16.51;87.28
24160;BME280;62385;41.594;23.808;2023-06-10T00:56:21;95058.59;;;16.45;88.18
24160;BME280;62385;41.594;23.808;2023-06-10T00:58:47;95072.13;;;16.64;87.64
24160;BME280;62385;41.594;23.808;2023-06-10T01:01:13;95062.72;;;16.48;88.53
24160;BME280;62385;41.594;23.808;2023-06-10T01:03:40;95064.66;;;16.34;87.59
24160;BME280;62385;41.594;23.808;2023-06-10T01:09:15;95063.91;;;16.21;89.88
24160;BME280;62385;41.594;23.808;2023-06-10T01:11:52;95055.88;;;16.27;89.33
24160;BME280;62385;41.594;23.808;2023-06-10T01:14:22;95065.56;;;16.22;89.20
24160;BME280;62385;41.594;23.808;2023-06-10T01:16:48;95058.13;;;16.24;89.63
24160;BME280;62385;41.594;23.808;2023-06-10T01:19:15;95059.50;;;16.39;89.72
24160;BME280;62385;41.594;23.808;2023-06-10T01:21:43;95055.25;;;16.25;89.55
24160;BME280;62385;41.594;23.808;2023-06-10T01:24:14;95053.56;;;16.31;89.53
24160;BME280;62385;41.594;23.808;2023-06-10T01:26:44;95048.59;;;16.34;88.78
24160;BME280;62385;41.594;23.808;2023-06-10T01:29:21;95041.75;;;16.38;88.02
24160;BME280;62385;41.594;23.808;2023-06-10T01:31:56;95048.47;;;16.23;87.76
24160;BME280;62385;41.594;23.808;2023-06-10T01:34:26;95048.38;;;16.04;88.91
24160;BME280;62385;41.594;23.808;2023-06-10T01:36:54;95044.47;;;16.00;89.55
24160;BME280;62385;41.594;23.808;2023-06-10T01:39:23;95053.34;;;15.94;89.75
24160;BME280;62385;41.594;23.808;2023-06-10T01:41:49;95045.75;;;16.29;88.95
24160;BME280;62385;41.594;23.808;2023-06-10T01:44:22;95044.47;;;16.32;88.63
24160;BME280;62385;41.594;23.808;2023-06-10T01:46:49;95046.00;;;15.83;89.56
24160;BME280;62385;41.594;23.808;2023-06-10T01:49:15;95040.47;;;16.16;89.43
24160;BME280;62385;41.594;23.808;2023-06-10T01:51:42;95032.66;;;16.14;89.50
24160;BME280;62385;41.594;23.808;2023-06-10T01:54:08;95032.59;;;16.21;88.83
24160;BME280;62385;41.594;23.808;2023-06-10T01:56:34;95031.53;;;16.29;88.96
24160;BME280;62385;41.594;23.808;2023-06-10T01:59:00;95033.34;;;16.35;88.07
24160;BME280;62385;41.594;23.808;2023-06-10T02:01:28;95036.84;;;16.35;88.88
24160;BME280;62385;41.594;23.808;2023-06-10T02:03:54;95027.16;;;16.03;89.67
24160;BME280;62385;41.594;23.808;2023-06-10T02:06:19;95033.63;;;15.89;90.03
24160;BME280;62385;41.594;23.808;2023-06-10T02:08:45;95036.56;;;16.12;90.30
24160;BME280;62385;41.594;23.808;2023-06-10T02:11:11;95034.53;;;16.07;89.92
24160;BME280;62385;41.594;23.808;2023-06-10T02:13:38;95035.63;;;16.00;90.28
24160;BME280;62385;41.594;23.808;2023-06-10T02:16:04;95033.97;;;15.99;90.32
24160;BME280;62385;41.594;23.808;2023-06-10T02:18:31;95026.47;;;16.14;89.60
24160;BME280;62385;41.594;23.808;2023-06-10T02:20:58;95034.75;;;16.37;88.31
24160;BME280;62385;41.594;23.808;2023-06-10T02:23:25;95025.31;;;16.35;88.47
24160;BME280;62385;41.594;23.808;2023-06-10T02:25:50;95029.59;;;16.36;88.90
24160;BME280;62385;41.594;23.808;2023-06-10T02:28:17;95018.84;;;16.42;88.60
24160;BME280;62385;41.594;23.808;2023-06-10T02:30:44;95028.28;;;16.51;87.97
24160;BME280;62385;41.594;23.808;2023-06-10T02:33:10;95030.03;;;16.33;88.52
24160;BME280;62385;41.594;23.808;2023-06-10T02:35:37;95025.84;;;16.19;88.97
24160;BME280;62385;41.594;23.808;2023-06-10T02:38:04;95031.22;;;16.12;89.04
24160;BME280;62385;41.594;23.808;2023-06-10T02:40:31;95026.47;;;16.14;88.67
24160;BME280;62385;41.594;23.808;2023-06-10T02:42:57;95039.63;;;16.22;89.07
24160;BME280;62385;41.594;23.808;2023-06-10T02:45:24;95036.78;;;16.42;87.54
24160;BME280;62385;41.594;23.808;2023-06-10T02:47:51;95039.56;;;16.29;88.65
24160;BME280;62385;41.594;23.808;2023-06-10T02:50:17;95034.09;;;16.42;87.97
24160;BME280;62385;41.594;23.808;2023-06-10T02:53:00;95037.22;;;16.39;88.87
24160;BME280;62385;41.594;23.808;2023-06-10T02:55:25;95024.38;;;16.23;88.13
24160;BME280;62385;41.594;23.808;2023-06-10T02:57:55;95030.75;;;16.22;88.27
24160;BME280;62385;41.594;23.808;2023-06-10T03:00:21;95036.56;;;16.19;88.67
24160;BME280;62385;41.594;23.808;2023-06-10T03:02:48;95045.03;;;16.09;88.58
24160;BME280;62385;41.594;23.808;2023-06-10T03:05:16;95045.91;;;16.03;88.66
24160;BME280;62385;41.594;23.808;2023-06-10T03:07:46;95039.31;;;16.05;88.71
24160;BME280;62385;41.594;23.808;2023-06-10T03:10:14;95036.56;;;16.12;88.38
24160;BME280;62385;41.594;23.808;2023-06-10T03:12:40;95049.78;;;16.07;87.88
24160;BME280;62385;41.594;23.808;2023-06-10T03:15:06;95046.00;;;15.90;88.52
24160;BME280;62385;41.594;23.808;2023-06-10T03:17:32;95045.56;;;15.86;87.84
24160;BME280;62385;41.594;23.808;2023-06-10T03:19:58;95057.03;;;16.06;87.50
24160;BME280;62385;41.594;23.808;2023-06-10T03:22:24;95058.50;;;16.02;87.43
24160;BME280;62385;41.594;23.808;2023-06-10T03:25:02;95047.81;;;16.27;86.75
24160;BME280;62385;41.594;23.808;2023-06-10T03:27:28;95044.72;;;16.24;86.52
24160;BME280;62385;41.594;23.808;2023-06-10T03:29:57;95058.38;;;16.22;86.88
24160;BME280;62385;41.594;23.808;2023-06-10T03:32:23;95059.84;;;16.18;86.51
24160;BME280;62385;41.594;23.808;2023-06-10T03:34:49;95051.25;;;16.03;87.33
24160;BME280;62385;41.594;23.808;2023-06-10T03:37:15;95065.19;;;16.18;87.10
24160;BME280;62385;41.594;23.808;2023-06-10T03:39:42;95058.94;;;16.24;86.44
24160;BME280;62385;41.594;23.808;2023-06-10T03:42:08;95062.44;;;16.31;86.29
24160;BME280;62385;41.594;23.808;2023-06-10T03:44:33;95055.41;;;16.30;86.60
24160;BME280;62385;41.594;23.808;2023-06-10T03:46:59;95057.91;;;16.25;86.11
24160;BME280;62385;41.594;23.808;2023-06-10T03:49:25;95062.84;;;15.97;86.95
24160;BME280;62385;41.594;23.808;2023-06-10T03:51:57;95068.69;;;15.74;88.06
24160;BME280;62385;41.594;23.808;2023-06-10T03:54:23;95067.03;;;15.80;87.98
24160;BME280;62385;41.594;23.808;2023-06-10T03:56:49;95062.44;;;15.93;87.56
24160;BME280;62385;41.594;23.808;2023-06-10T03:59:14;95063.28;;;15.94;87.22
24160;BME280;62385;41.594;23.808;2023-06-10T04:01:41;95057.75;;;16.20;86.74
24160;BME280;62385;41.594;23.808;2023-06-10T04:04:07;95060.34;;;16.33;86.70
24160;BME280;62385;41.594;23.808;2023-06-10T04:06:34;95054.63;;;16.54;85.98
24160;BME280;62385;41.594;23.808;2023-06-10T04:08:59;95054.63;;;15.92;87.20
24160;BME280;62385;41.594;23.808;2023-06-10T04:11:27;95054.03;;;16.21;86.51
24160;BME280;62385;41.594;23.808;2023-06-10T04:13:53;95053.19;;;16.27;86.26
24160;BME280;62385;41.594;23.808;2023-06-10T04:16:20;95062.13;;;16.08;86.47
24160;BME280;62385;41.594;23.808;2023-06-10T04:18:47;95056.50;;;15.85;87.38
24160;BME280;62385;41.594;23.808;2023-06-10T04:21:14;95045.00;;;16.47;85.66
24160;BME280;62385;41.594;23.808;2023-06-10T04:23:40;95053.59;;;15.93;87.12
24160;BME280;62385;41.594;23.808;2023-06-10T04:26:05;95056.09;;;16.50;85.90
24160;BME280;62385;41.594;23.808;2023-06-10T04:28:31;95053.75;;;16.60;85.40
24160;BME280;62385;41.594;23.808;2023-06-10T04:30:58;95051.78;;;16.49;86.05
24160;BME280;62385;41.594;23.808;2023-06-10T04:33:24;95039.53;;;16.35;85.67
24160;BME280;62385;41.594;23.808;2023-06-10T04:35:50;95044.78;;;16.17;85.80
24160;BME280;62385;41.594;23.808;2023-06-10T04:38:17;95043.00;;;16.04;86.55
24160;BME280;62385;41.594;23.808;2023-06-10T04:40:44;95038.69;;;16.35;86.53
24160;BME280;62385;41.594;23.808;2023-06-10T04:43:12;95043.53;;;16.51;85.58
24160;BME280;62385;41.594;23.808;2023-06-10T04:45:38;95047.38;;;16.61;85.64
24160;BME280;62385;41.594;23.808;2023-06-10T04:48:06;95052.19;;;16.78;85.09
24160;BME280;62385;41.594;23.808;2023-06-10T04:50:32;95048.19;;;16.87;83.94
24160;BME280;62385;41.594;23.808;2023-06-10T04:52:58;95049.22;;;16.86;83.74
24160;BME280;62385;41.594;23.808;2023-06-10T04:55:24;95042.19;;;16.67;84.43
24160;BME280;62385;41.594;23.808;2023-06-10T04:57:50;95035.53;;;16.94;83.71
24160;BME280;62385;41.594;23.808;2023-06-10T05:00:17;95031.94;;;17.25;82.56
24160;BME280;62385;41.594;23.808;2023-06-10T05:02:42;95033.06;;;17.53;81.23
24160;BME280;62385;41.594;23.808;2023-06-10T05:05:08;95039.22;;;17.90;80.82
24160;BME280;62385;41.594;23.808;2023-06-10T05:07:34;95039.44;;;17.89;78.98
24160;BME280;62385;41.594;23.808;2023-06-10T05:10:00;95030.66;;;17.82;79.52
24160;BME280;62385;41.594;23.808;2023-06-10T05:12:26;95028.38;;;18.57;77.11
24160;BME280;62385;41.594;23.808;2023-06-10T05:14:53;95033.81;;;17.79;79.10
24160;BME280;62385;41.594;23.808;2023-06-10T05:17:18;95026.94;;;17.83;79.49
24160;BME280;62385;41.594;23.808;2023-06-10T05:19:44;95033.81;;;17.42;80.30
24160;BME280;62385;41.594;23.808;2023-06-10T05:22:10;95024.22;;;17.71;79.92
24160;BME280;62385;41.594;23.808;2023-06-10T05:24:35;95023.25;;;17.95;78.49
24160;BME280;62385;41.594;23.808;2023-06-10T05:27:01;95021.72;;;18.18;78.46
24160;BME280;62385;41.594;23.808;2023-06-10T05:29:28;95017.06;;;17.95;78.80
24160;BME280;62385;41.594;23.808;2023-06-10T05:31:53;95019.91;;;18.41;78.65
24160;BME280;62385;41.594;23.808;2023-06-10T05:34:21;95015.25;;;18.49;80.08
24160;BME280;62385;41.594;23.808;2023-06-10T05:36:47;95021.41;;;18.79;77.69
24160;BME280;62385;41.594;23.808;2023-06-10T05:39:12;95025.16;;;18.48;78.16
24160;BME280;62385;41.594;23.808;2023-06-10T05:41:38;95022.59;;;18.41;78.10
24160;BME280;62385;41.594;23.808;2023-06-10T05:44:03;95007.34;;;18.65;76.82
24160;BME280;62385;41.594;23.808;2023-06-10T05:46:29;95014.50;;;18.71;76.87
24160;BME280;62385;41.594;23.808;2023-06-10T05:48:55;95003.97;;;18.93;76.78
24160;BME280;62385;41.594;23.808;2023-06-10T05:51:21;95010.06;;;19.87;75.23
24160;BME280;62385;41.594;23.808;2023-06-10T05:53:46;94995.63;;;19.53;75.58
24160;BME280;62385;41.594;23.808;2023-06-10T05:56:13;95015.75;;;19.38;76.60
24160;BME280;62385;41.594;23.808;2023-06-10T05:58:58;95016.03;;;19.25;77.63
24160;BME280;62385;41.594;23.808;2023-06-10T06:01:23;95013.44;;;19.42;76.31
24160;BME280;62385;41.594;23.808;2023-06-10T06:03:49;95000.56;;;19.21;74.93
24160;BME280;62385;41.594;23.808;2023-06-10T06:06:14;95006.53;;;19.11;75.38
24160;BME280;62385;41.594;23.808;2023-06-10T06:08:40;95007.72;;;19.15;76.67
24160;BME280;62385;41.594;23.808;2023-06-10T06:11:05;95007.72;;;19.04;76.48
24160;BME280;62385;41.594;23.808;2023-06-10T06:13:31;95011.09;;;19.22;76.56
24160;BME280;62385;41.594;23.808;2023-06-10T06:15:56;95003.25;;;19.32;75.78
24160;BME280;62385;41.594;23.808;2023-06-10T06:18:22;94991.75;;;19.60;76.29
24160;BME280;62385;41.594;23.808;2023-06-10T06:20:48;94999.59;;;19.38;76.11
24160;BME280;62385;41.594;23.808;2023-06-10T06:23:13;94997.19;;;18.90;77.08
24160;BME280;62385;41.594;23.808;2023-06-10T06:25:39;95003.84;;;18.76;78.53
24160;BME280;62385;41.594;23.808;2023-06-10T06:28:10;94977.31;;;18.80;78.34
24160;BME280;62385;41.594;23.808;2023-06-10T06:30:35;94979.66;;;19.00;78.46
24160;BME280;62385;41.594;23.808;2023-06-10T06:33:01;94992.59;;;19.14;78.24
24160;BME280;62385;41.594;23.808;2023-06-10T06:35:27;94981.38;;;19.17;78.02
24160;BME280;62385;41.594;23.808;2023-06-10T06:37:53;94967.00;;;19.12;77.91
24160;BME280;62385;41.594;23.808;2023-06-10T06:40:24;94974.50;;;19.21;78.28
24160;BME280;62385;41.594;23.808;2023-06-10T06:42:51;94972.50;;;19.68;77.39
24160;BME280;62385;41.594;23.808;2023-06-10T06:45:37;94970.88;;;19.67;77.17
24160;BME280;62385;41.594;23.808;2023-06-10T06:48:03;94965.31;;;19.34;78.45
24160;BME280;62385;41.594;23.808;2023-06-10T06:50:28;94967.53;;;19.49;77.34
24160;BME280;62385;41.594;23.808;2023-06-10T06:52:54;94962.28;;;19.42;78.45
24160;BME280;62385;41.594;23.808;2023-06-10T06:55:20;94967.00;;;19.75;76.98
24160;BME280;62385;41.594;23.808;2023-06-10T06:57:45;94955.78;;;19.95;76.02
24160;BME280;62385;41.594;23.808;2023-06-10T07:00:12;94961.22;;;19.83;77.14
24160;BME280;62385;41.594;23.808;2023-06-10T07:02:38;94961.00;;;19.45;77.02
24160;BME280;62385;41.594;23.808;2023-06-10T07:05:04;94949.63;;;19.54;78.03
24160;BME280;62385;41.594;23.808;2023-06-10T07:07:49;94951.72;;;19.80;74.74
24160;BME280;62385;41.594;23.808;2023-06-10T07:10:21;94938.16;;;20.04;74.95
24160;BME280;62385;41.594;23.808;2023-06-10T07:12:47;94941.50;;;19.66;74.69
24160;BME280;62385;41.594;23.808;2023-06-10T07:15:14;94935.94;;;20.01;77.11
24160;BME280;62385;41.594;23.808;2023-06-10T07:17:39;94935.94;;;20.29;74.99
24160;BME280;62385;41.594;23.808;2023-06-10T07:20:05;94940.78;;;20.15;74.91
24160;BME280;62385;41.594;23.808;2023-06-10T07:22:31;94932.03;;;20.37;74.02
24160;BME280;62385;41.594;23.808;2023-06-10T07:24:57;94935.69;;;20.31;71.67
24160;BME280;62385;41.594;23.808;2023-06-10T07:27:23;94928.00;;;20.56;73.64
24160;BME280;62385;41.594;23.808;2023-06-10T07:29:49;94930.34;;;20.86;71.83
24160;BME280;62385;41.594;23.808;2023-06-10T07:32:14;94936.31;;;20.71;74.30
24160;BME280;62385;41.594;23.808;2023-06-10T07:34:41;94935.66;;;20.97;73.63
24160;BME280;62385;41.594;23.808;2023-06-10T07:37:07;94930.25;;;20.97;73.95
24160;BME280;62385;41.594;23.808;2023-06-10T07:39:32;94927.03;;;21.17;73.23
24160;BME280;62385;41.594;23.808;2023-06-10T07:41:58;94922.44;;;21.17;73.57
24160;BME280;62385;41.594;23.808;2023-06-10T07:44:24;94922.47;;;21.39;71.03
24160;BME280;62385;41.594;23.808;2023-06-10T07:46:50;94921.94;;;21.64;71.69
24160;BME280;62385;41.594;23.808;2023-06-10T07:49:16;94917.69;;;21.68;71.72
24160;BME280;62385;41.594;23.808;2023-06-10T07:51:41;94909.31;;;21.70;71.21
24160;BME280;62385;41.594;23.808;2023-06-10T07:54:07;94916.88;;;22.21;69.35
24160;BME280;62385;41.594;23.808;2023-06-10T07:56:32;94909.25;;;21.91;70.04
24160;BME280;62385;41.594;23.808;2023-06-10T07:58:58;94909.88;;;22.57;68.05
24160;BME280;62385;41.594;23.808;2023-06-10T08:01:24;94901.59;;;23.06;65.87
24160;BME280;62385;41.594;23.808;2023-06-10T08:03:49;94892.84;;;22.93;67.32
24160;BME280;62385;41.594;23.808;2023-06-10T08:06:15;94885.50;;;23.41;66.64
24160;BME280;62385;41.594;23.808;2023-06-10T08:08:43;94888.50;;;23.39;64.60
24160;BME280;62385;41.594;23.808;2023-06-10T08:11:10;94891.59;;;23.73;64.01
24160;BME280;62385;41.594;23.808;2023-06-10T08:13:37;94887.28;;;23.82;63.21
24160;BME280;62385;41.594;23.808;2023-06-10T08:16:03;94893.97;;;23.55;63.40
24160;BME280;62385;41.594;23.808;2023-06-10T08:18:29;94893.03;;;24.01;62.77
24160;BME280;62385;41.594;23.808;2023-06-10T08:20:55;94874.88;;;24.02;60.77
24160;BME280;62385;41.594;23.808;2023-06-10T08:23:20;94881.16;;;24.38;59.62
24160;BME280;62385;41.594;23.808;2023-06-10T08:25:46;94869.50;;;24.22;57.89
24160;BME280;62385;41.594;23.808;2023-06-10T08:28:13;94863.25;;;24.16;57.59
24160;BME280;62385;41.594;23.808;2023-06-10T08:30:39;94863.38;;;23.69;53.86
24160;BME280;62385;41.594;23.808;2023-06-10T08:33:04;94860.69;;;23.74;56.25
24160;BME280;62385;41.594;23.808;2023-06-10T08:35:30;94860.16;;;23.67;57.97
24160;BME280;62385;41.594;23.808;2023-06-10T08:37:55;94861.81;;;23.99;55.12
24160;BME280;62385;41.594;23.808;2023-06-10T08:40:21;94858.63;;;24.37;55.46
24160;BME280;62385;41.594;23.808;2023-06-10T08:43:07;94859.72;;;24.21;56.61
24160;BME280;62385;41.594;23.808;2023-06-10T08:45:36;94861.84;;;24.09;55.70
24160;BME280;62385;41.594;23.808;2023-06-10T08:48:05;94858.78;;;23.65;55.62
24160;BME280;62385;41.594;23.808;2023-06-10T08:50:40;94854.22;;;23.90;58.00
24160;BME280;62385;41.594;23.808;2023-06-10T08:53:07;94853.16;;;23.91;56.96
24160;BME280;62385;41.594;23.808;2023-06-10T08:55:36;94849.09;;;24.14;56.19
24160;BME280;62385;41.594;23.808;2023-06-10T08:58:04;94836.88;;;24.12;55.64
24160;BME280;62385;41.594;23.808;2023-06-10T09:00:31;94834.22;;;24.22;54.52
24160;BME280;62385;41.594;23.808;2023-06-10T09:02:58;94838.78;;;24.01;55.39
24160;BME280;62385;41.594;23.808;2023-06-10T09:05:24;94822.22;;;23.82;53.01
24160;BME280;62385;41.594;23.808;2023-06-10T09:07:52;94837.94;;;23.90;54.94
24160;BME280;62385;41.594;23.808;2023-06-10T09:10:18;94824.63;;;23.69;55.52
24160;BME280;62385;41.594;23.808;2023-06-10T09:12:44;94834.97;;;23.77;54.28
24160;BME280;62385;41.594;23.808;2023-06-10T09:15:09;94839.00;;;23.69;55.20
24160;BME280;62385;41.594;23.808;2023-06-10T09:17:38;94832.19;;;23.57;55.90
24160;BME280;62385;41.594;23.808;2023-06-10T09:20:07;94833.41;;;24.42;51.71
24160;BME280;62385;41.594;23.808;2023-06-10T09:22:33;94826.81;;;24.78;53.46
24160;BME280;62385;41.594;23.808;2023-06-10T09:25:16;94821.94;;;24.80;53.70
24160;BME280;62385;41.594;23.808;2023-06-10T09:27:53;94822.50;;;24.67;50.44
24160;BME280;62385;41.594;23.808;2023-06-10T09:30:28;94818.16;;;24.66;50.26
24160;BME280;62385;41.594;23.808;2023-06-10T09:33:01;94817.28;;;25.01;54.15
24160;BME280;62385;41.594;23.808;2023-06-10T09:35:29;94811.31;;;25.04;48.96
24160;BME280;62385;41.594;23.808;2023-06-10T09:37:56;94808.03;;;25.07;51.51
24160;BME280;62385;41.594;23.808;2023-06-10T09:40:22;94818.94;;;24.92;50.67
24160;BME280;62385;41.594;23.808;2023-06-10T09:42:59;94817.25;;;25.06;52.91
24160;BME280;62385;41.594;23.808;2023-06-10T09:45:30;94818.69;;;24.88;48.69
24160;BME280;62385;41.594;23.808;2023-06-10T09:47:57;94815.03;;;25.18;50.42
24160;BME280;62385;41.594;23.808;2023-06-10T09:50:23;94814.34;;;25.51;51.03
24160;BME280;62385;41.594;23.808;2023-06-10T09:52:50;94815.19;;;25.47;49.30
24160;BME280;62385;41.594;23.808;2023-06-10T09:55:16;94813.81;;;25.49;49.84
24160;BME280;62385;41.594;23.808;2023-06-10T09:57:42;94814.91;;;25.48;51.40
24160;BME280;62385;41.594;23.808;2023-06-10T10:00:11;94818.81;;;25.27;52.35
24160;BME280;62385;41.594;23.808;2023-06-10T10:02:47;94821.75;;;25.41;51.65
24160;BME280;62385;41.594;23.808;2023-06-10T10:05:17;94818.97;;;25.51;51.28
24160;BME280;62385;41.594;23.808;2023-06-10T10:07:45;94820.94;;;25.40;48.58
24160;BME280;62385;41.594;23.808;2023-06-10T10:10:11;94823.81;;;24.95;51.27
24160;BME280;62385;41.594;23.808;2023-06-10T10:12:39;94818.94;;;24.81;53.34
24160;BME280;62385;41.594;23.808;2023-06-10T10:15:09;94817.06;;;24.92;54.15
24160;BME280;62385;41.594;23.808;2023-06-10T10:18:03;94826.84;;;24.07;57.72
24160;BME280;62385;41.594;23.808;2023-06-10T10:20:33;94820.34;;;23.88;62.02
24160;BME280;62385;41.594;23.808;2023-06-10T10:23:03;94825.50;;;24.10;60.40
24160;BME280;62385;41.594;23.808;2023-06-10T10:25:38;94829.53;;;23.87;61.07
24160;BME280;62385;41.594;23.808;2023-06-10T10:28:15;94820.88;;;23.80;62.90
24160;BME280;62385;41.594;23.808;2023-06-10T10:30:50;94824.69;;;24.09;64.28
24160;BME280;62385;41.594;23.808;2023-06-10T10:33:25;94821.47;;;24.17;67.04
24160;BME280;62385;41.594;23.808;2023-06-10T10:35:55;94829.59;;;23.15;66.64
24160;BME280;62385;41.594;23.808;2023-06-10T10:38:21;94838.16;;;22.54;69.61
24160;BME280;62385;41.594;23.808;2023-06-10T10:40:47;94837.16;;;22.66;69.33
24160;BME280;62385;41.594;23.808;2023-06-10T10:43:14;94832.13;;;22.79;68.92
24160;BME280;62385;41.594;23.808;2023-06-10T10:45:41;94838.47;;;22.58;71.01
24160;BME280;62385;41.594;23.808;2023-06-10T10:48:10;94837.59;;;22.47;69.13
24160;BME280;62385;41.594;23.808;2023-06-10T10:50:37;94833.19;;;22.73;68.77
24160;BME280;62385;41.594;23.808;2023-06-10T10:53:04;94835.81;;;23.15;68.33
24160;BME280;62385;41.594;23.808;2023-06-10T10:55:31;94842.50;;;22.92;69.23
24160;BME280;62385;41.594;23.808;2023-06-10T10:58:05;94838.59;;;22.73;70.79
24160;BME280;62385;41.594;23.808;2023-06-10T11:00:33;94835.41;;;22.86;70.91
24160;BME280;62385;41.594;23.808;2023-06-10T11:05:45;94831.88;;;22.81;72.09
24160;BME280;62385;41.594;23.808;2023-06-10T11:08:45;94841.94;;;22.48;73.67
24160;BME280;62385;41.594;23.808;2023-06-10T11:11:20;94838.22;;;22.60;68.79
24160;BME280;62385;41.594;23.808;2023-06-10T11:16:28;94825.63;;;23.42;67.09
24160;BME280;62385;41.594;23.808;2023-06-10T11:18:54;94822.44;;;23.51;65.67
24160;BME280;62385;41.594;23.808;2023-06-10T11:21:23;94822.63;;;23.34;67.77
24160;BME280;62385;41.594;23.808;2023-06-10T11:23:50;94824.53;;;23.38;67.30
24160;BME280;62385;41.594;23.808;2023-06-10T11:33:58;94839.00;;;23.64;62.42
24160;BME280;62385;41.594;23.808;2023-06-10T11:36:25;94835.78;;;23.82;62.78
24160;BME280;62385;41.594;23.808;2023-06-10T11:38:58;94834.69;;;23.78;61.33
24160;BME280;62385;41.594;23.808;2023-06-10T11:41:26;94824.13;;;23.72;61.16
24160;BME280;62385;41.594;23.808;2023-06-10T11:43:52;94830.16;;;24.29;62.57
24160;BME280;62385;41.594;23.808;2023-06-10T11:46:20;94833.34;;;23.81;63.66
24160;BME280;62385;41.594;23.808;2023-06-10T11:48:52;94827.34;;;23.74;64.23
24160;BME280;62385;41.594;23.808;2023-06-10T11:51:38;94818.47;;;23.06;65.93
24160;BME280;62385;41.594;23.808;2023-06-10T11:54:10;94831.03;;;22.75;67.03
24160;BME280;62385;41.594;23.808;2023-06-10T11:56:35;94825.34;;;23.39;66.06
24160;BME280;62385;41.594;23.808;2023-06-10T11:59:06;94827.94;;;24.11;64.25
24160;BME280;62385;41.594;23.808;2023-06-10T12:01:36;94835.53;;;24.14;63.42
24160;BME280;62385;41.594;23.808;2023-06-10T12:04:04;94831.66;;;23.65;65.34
24160;BME280;62385;41.594;23.808;2023-06-10T12:06:43;94829.41;;;23.36;63.03
24160;BME280;62385;41.594;23.808;2023-06-10T12:09:24;94821.25;;;23.36;63.37
24160;BME280;62385;41.594;23.808;2023-06-10T12:14:53;94832.63;;;23.28;64.93
24160;BME280;62385;41.594;23.808;2023-06-10T12:17:21;94829.84;;;23.08;67.04
24160;BME280;62385;41.594;23.808;2023-06-10T12:19:48;94831.75;;;22.66;67.39
24160;BME280;62385;41.594;23.808;2023-06-10T12:22:14;94828.63;;;22.84;68.17
24160;BME280;62385;41.594;23.808;2023-06-10T12:44:40;94864.16;;;21.92;69.30
24160;BME280;62385;41.594;23.808;2023-06-10T12:47:09;94863.16;;;21.98;70.51
24160;BME280;62385;41.594;23.808;2023-06-10T12:49:36;94862.41;;;22.07;70.08
24160;BME280;62385;41.594;23.808;2023-06-10T12:52:02;94861.09;;;22.10;70.83
24160;BME280;62385;41.594;23.808;2023-06-10T12:54:27;94867.50;;;22.31;70.40
24160;BME280;62385;41.594;23.808;2023-06-10T12:56:53;94870.69;;;21.96;70.90
24160;BME280;62385;41.594;23.808;2023-06-10T12:59:18;94868.00;;;21.96;71.45
24160;BME280;62385;41.594;23.808;2023-06-10T13:01:49;94860.94;;;21.95;71.32
24160;BME280;62385;41.594;23.808;2023-06-10T13:04:16;94862.78;;;21.89;72.72
24160;BME280;62385;41.594;23.808;2023-06-10T13:06:42;94861.91;;;22.11;70.40
24160;BME280;62385;41.594;23.808;2023-06-10T13:09:08;94858.56;;;21.98;71.82
24160;BME280;62385;41.594;23.808;2023-06-10T13:11:33;94867.13;;;21.90;71.66
24160;BME280;62385;41.594;23.808;2023-06-10T13:13:59;94864.81;;;21.77;71.83
24160;BME280;62385;41.594;23.808;2023-06-10T13:16:25;94876.47;;;21.83;71.14
24160;BME280;62385;41.594;23.808;2023-06-10T13:18:53;94876.38;;;21.73;71.29
24160;BME280;62385;41.594;23.808;2023-06-10T13:21:18;94877.56;;;21.82;71.31
24160;BME280;62385;41.594;23.808;2023-06-10T13:23:45;94871.50;;;22.23;68.80
24160;BME280;62385;41.594;23.808;2023-06-10T13:26:14;94877.94;;;22.54;68.47
24160;BME280;62385;41.594;23.808;2023-06-10T13:28:43;94876.28;;;22.48;68.57
24160;BME280;62385;41.594;23.808;2023-06-10T13:31:09;94882.22;;;22.50;67.58